Time;durP1;ratioP1;P1;durP2;ratioP2;P2;SDS_P1;SDS_P2;PMS_P1;PMS_P2;Temp;Humidity;BMP_temperature;BMP_pressure;BME280_temperature;BME280_humidity;BME280_pressure;Samples;Min_cycle;Max_cycle;Signal;HPM_P1;HPM_P2
2024/01/24 00:02:03;;;;;;;35.22;6.32;;;10.90;99.90;;;;;;5066938;28;20028;-47
2024/01/24 00:04:29;;;;;;;35.40;6.68;;;10.90;99.90;;;;;;5066944;28;20095;-47
2024/01/24 00:06:54;;;;;;;28.70;5.60;;;10.90;99.90;;;;;;5066040;28;20036;-46
2024/01/24 00:09:20;;;;;;;35.05;5.93;;;10.80;99.90;;;;;;5066829;28;20036;-47
2024/01/24 00:11:46;;;;;;;39.83;5.93;;;10.80;99.90;;;;;;5066913;28;20036;-46
2024/01/24 00:14:11;;;;;;;29.90;5.32;;;10.70;99.90;;;;;;5065740;28;20113;-47
2024/01/24 00:16:37;;;;;;;26.15;5.28;;;10.70;99.90;;;;;;5066492;28;20325;-47
2024/01/24 00:19:03;;;;;;;31.88;5.47;;;10.80;99.90;;;;;;5066786;28;20096;-47
2024/01/24 00:21:29;;;;;;;37.67;5.20;;;10.80;99.90;;;;;;5066512;28;20037;-46
2024/01/24 00:23:55;;;;;;;34.17;5.65;;;10.80;99.90;;;;;;5066781;28;20221;-50
2024/01/24 00:26:20;;;;;;;31.85;5.03;;;10.80;99.90;;;;;;5066548;28;20029;-47
2024/01/24 00:28:46;;;;;;;32.53;5.45;;;10.80;99.90;;;;;;5066699;28;20021;-47
2024/01/24 00:31:12;;;;;;;31.00;5.10;;;10.80;99.90;;;;;;5066707;28;20090;-47
2024/01/24 00:33:38;;;;;;;28.17;5.45;;;10.70;99.90;;;;;;5066301;28;20029;-47
2024/01/24 00:36:04;;;;;;;40.95;5.95;;;10.70;99.90;;;;;;5065598;28;20037;-47
2024/01/24 00:38:29;;;;;;;35.00;4.78;;;10.60;99.90;;;;;;5066443;28;20294;-47
2024/01/24 00:40:55;;;;;;;28.25;4.75;;;10.60;99.90;;;;;;5065920;28;20290;-46
2024/01/24 00:43:21;;;;;;;25.00;4.45;;;10.60;99.90;;;;;;5065015;28;20355;-49
2024/01/24 00:45:47;;;;;;;37.08;5.47;;;10.60;99.90;;;;;;5065965;28;20025;-48
2024/01/24 00:48:12;;;;;;;31.50;5.65;;;10.60;99.90;;;;;;5065076;28;20032;-47
2024/01/24 00:50:38;;;;;;;39.38;6.40;;;10.50;99.90;;;;;;5066127;28;20298;-47
2024/01/24 00:53:07;;;;;;;29.42;5.65;;;10.50;99.90;;;;;;5066099;28;20021;-47
2024/01/24 00:55:32;;;;;;;38.45;6.35;;;10.40;99.90;;;;;;5065271;28;20094;-47
2024/01/24 00:57:58;;;;;;;30.55;4.20;;;10.30;99.90;;;;;;5066041;28;20037;-47
2024/01/24 01:00:24;;;;;;;36.40;6.28;;;10.30;99.90;;;;;;5064963;28;20036;-46
2024/01/24 01:02:50;;;;;;;33.88;5.88;;;10.30;99.90;;;;;;5066218;28;20028;-48
2024/01/24 01:05:16;;;;;;;37.47;5.70;;;10.30;99.90;;;;;;5064618;28;20086;-48
2024/01/24 01:07:41;;;;;;;42.15;6.72;;;10.30;99.90;;;;;;5065630;28;20021;-46
2024/01/24 01:10:08;;;;;;;32.15;5.75;;;10.30;99.90;;;;;;5065766;28;20032;-46
2024/01/24 01:12:34;;;;;;;30.67;6.60;;;10.30;99.90;;;;;;5065439;28;20061;-50
2024/01/24 01:14:59;;;;;;;36.58;5.95;;;10.30;99.90;;;;;;5065822;28;20086;-47
2024/01/24 01:17:25;;;;;;;28.33;5.10;;;10.20;99.90;;;;;;5065423;28;20211;-48
2024/01/24 01:19:51;;;;;;;39.13;6.43;;;10.20;99.90;;;;;;5065678;28;20283;-49
2024/01/24 01:22:16;;;;;;;37.08;6.70;;;10.10;99.90;;;;;;5065735;28;20104;-46
2024/01/24 01:24:42;;;;;;;28.02;4.97;;;10.10;99.90;;;;;;5065673;28;20036;-47
2024/01/24 01:27:08;;;;;;;34.03;5.72;;;10.20;99.90;;;;;;5065942;28;20052;-49
2024/01/24 01:29:34;;;;;;;25.63;4.97;;;10.20;99.90;;;;;;5065470;28;20032;-46
2024/01/24 01:32:00;;;;;;;31.65;6.15;;;10.20;99.90;;;;;;5064490;28;20028;-49
2024/01/24 01:34:26;;;;;;;30.98;5.72;;;10.20;99.90;;;;;;5065670;28;20087;-49
2024/01/24 01:36:51;;;;;;;33.90;6.13;;;10.30;99.90;;;;;;5065641;28;20036;-49
2024/01/24 01:39:18;;;;;;;33.55;5.25;;;10.30;99.90;;;;;;5064370;28;20093;-50
2024/01/24 01:41:48;;;;;;;34.85;5.75;;;10.30;99.90;;;;;;5065494;28;20071;-48
2024/01/24 01:44:17;;;;;;;34.33;6.03;;;10.30;99.90;;;;;;5065413;28;20021;-50
2024/01/24 01:46:44;;;;;;;33.33;5.73;;;10.30;99.90;;;;;;5065529;28;20029;-50
2024/01/24 01:49:10;;;;;;;28.40;4.70;;;10.40;99.90;;;;;;5068549;28;20114;-49
2024/01/24 01:51:36;;;;;;;37.85;5.55;;;10.40;99.90;;;;;;5068673;28;20282;-47
2024/01/24 01:54:02;;;;;;;22.25;6.10;;;10.40;99.90;;;;;;5069411;28;20036;-47
2024/01/24 01:56:28;;;;;;;29.38;5.05;;;10.40;99.90;;;;;;5068489;28;20033;-49
2024/01/24 01:58:53;;;;;;;39.28;6.63;;;10.40;99.90;;;;;;5051522;28;20088;-47
2024/01/24 02:01:19;;;;;;;34.70;6.47;;;10.40;99.90;;;;;;5069255;28;20060;-47
2024/01/24 02:03:45;;;;;;;25.80;4.65;;;10.40;99.90;;;;;;5069258;28;20036;-45
2024/01/24 02:06:11;;;;;;;34.17;5.43;;;10.30;99.90;;;;;;5068531;28;20016;-46
2024/01/24 02:08:39;;;;;;;35.83;5.82;;;10.30;99.90;;;;;;5068445;28;20116;-47
2024/01/24 02:11:05;;;;;;;30.27;6.32;;;10.30;99.90;;;;;;5069346;28;20029;-47
2024/01/24 02:13:31;;;;;;;29.85;4.72;;;10.40;99.90;;;;;;5068972;28;20032;-49
2024/01/24 02:16:00;;;;;;;34.08;5.80;;;10.40;99.90;;;;;;5068589;28;20072;-48
2024/01/24 02:18:26;;;;;;;32.03;4.60;;;10.40;99.90;;;;;;5069038;28;20051;-50
2024/01/24 02:20:52;;;;;;;27.92;5.35;;;10.40;99.90;;;;;;5069121;28;20186;-48
2024/01/24 02:23:18;;;;;;;27.27;4.50;;;10.40;99.90;;;;;;5068680;28;20312;-49
2024/01/24 02:25:44;;;;;;;30.52;4.55;;;10.50;99.90;;;;;;5069010;28;20063;-50
2024/01/24 02:28:09;;;;;;;31.20;5.28;;;10.50;99.90;;;;;;5068728;28;20021;-50
2024/01/24 02:30:35;;;;;;;31.85;5.22;;;10.50;99.90;;;;;;5068499;28;20028;-50
2024/01/24 02:33:01;;;;;;;27.25;5.60;;;10.50;99.90;;;;;;5068862;28;20025;-50
2024/01/24 02:35:27;;;;;;;35.17;6.00;;;10.40;99.90;;;;;;5068735;28;20040;-50
2024/01/24 02:37:53;;;;;;;31.50;5.85;;;10.40;99.90;;;;;;5068480;28;20172;-50
2024/01/24 02:40:19;;;;;;;35.00;6.25;;;10.30;99.90;;;;;;5067614;28;20032;-50
2024/01/24 02:42:45;;;;;;;39.20;6.60;;;10.30;99.90;;;;;;5068775;28;20095;-50
2024/01/24 02:45:10;;;;;;;22.80;3.92;;;10.20;99.90;;;;;;5068585;28;20076;-48
2024/01/24 02:47:36;;;;;;;30.20;5.43;;;10.20;99.90;;;;;;5067634;28;20302;-47
2024/01/24 02:50:03;;;;;;;31.27;5.68;;;10.20;99.90;;;;;;5068343;28;20024;-50
2024/01/24 02:52:29;;;;;;;27.15;4.18;;;10.10;99.90;;;;;;5068320;28;20029;-50
2024/01/24 02:54:55;;;;;;;34.53;4.93;;;10.00;99.90;;;;;;5068409;28;20102;-47
2024/01/24 02:57:21;;;;;;;26.80;5.45;;;10.00;99.90;;;;;;5068302;28;20029;-46
2024/01/24 02:59:46;;;;;;;26.40;5.03;;;10.00;99.90;;;;;;5066887;28;20035;-48
2024/01/24 03:02:12;;;;;;;34.80;4.97;;;10.00;99.90;;;;;;5068146;28;20060;-48
2024/01/24 03:04:37;;;;;;;28.77;4.85;;;10.10;99.90;;;;;;5068208;28;20032;-47
2024/01/24 03:07:03;;;;;;;24.73;4.57;;;10.00;99.90;;;;;;5067149;28;20029;-48
2024/01/24 03:09:29;;;;;;;31.67;6.05;;;10.00;99.90;;;;;;5068265;28;20056;-47
2024/01/24 03:11:54;;;;;;;19.83;4.15;;;10.00;99.90;;;;;;5068061;28;20282;-47
2024/01/24 03:14:21;;;;;;;22.27;4.68;;;10.00;99.90;;;;;;5067200;28;20043;-47
2024/01/24 03:16:47;;;;;;;32.15;5.72;;;10.10;99.90;;;;;;5067455;28;20258;-49
2024/01/24 03:19:13;;;;;;;29.85;5.25;;;10.10;99.90;;;;;;5066759;28;20033;-49
2024/01/24 03:21:39;;;;;;;24.70;4.25;;;10.20;99.90;;;;;;5066756;28;20025;-50
2024/01/24 03:24:06;;;;;;;34.33;5.75;;;10.10;99.90;;;;;;5066989;28;20036;-50
2024/01/24 03:26:31;;;;;;;30.40;4.82;;;10.10;99.90;;;;;;5067898;28;20024;-49
2024/01/24 03:28:57;;;;;;;26.38;4.35;;;10.10;99.90;;;;;;5067777;28;20033;-50
2024/01/24 03:31:23;;;;;;;36.58;5.10;;;10.10;99.90;;;;;;5067359;28;20047;-50
2024/01/24 03:33:48;;;;;;;30.65;5.32;;;10.10;99.90;;;;;;5067778;28;20164;-50
2024/01/24 03:36:14;;;;;;;40.25;5.68;;;10.10;99.90;;;;;;5067586;28;20139;-50
2024/01/24 03:38:40;;;;;;;30.17;5.45;;;10.00;99.90;;;;;;5067633;28;20024;-50
2024/01/24 03:41:05;;;;;;;20.38;4.18;;;10.00;99.90;;;;;;5066557;28;20040;-50
2024/01/24 03:43:31;;;;;;;28.67;4.82;;;10.00;99.90;;;;;;5067529;28;20328;-50
2024/01/24 03:45:56;;;;;;;34.70;5.50;;;9.90;99.90;;;;;;5066342;28;20213;-50
2024/01/24 03:48:22;;;;;;;21.67;3.95;;;9.90;99.90;;;;;;5066257;28;20056;-49
2024/01/24 03:50:48;;;;;;;36.50;5.45;;;9.90;99.90;;;;;;5066282;28;20314;-49
2024/01/24 03:53:13;;;;;;;23.55;4.57;;;9.90;99.90;;;;;;5067291;28;20035;-50
2024/01/24 03:55:39;;;;;;;30.70;4.85;;;9.90;99.90;;;;;;5067421;28;20037;-50
2024/01/24 03:58:05;;;;;;;36.58;4.90;;;9.90;99.90;;;;;;5066123;28;20087;-50
2024/01/24 04:00:30;;;;;;;31.52;5.43;;;9.90;99.90;;;;;;5067045;28;20050;-50
2024/01/24 04:02:56;;;;;;;43.97;6.53;;;9.80;99.90;;;;;;5067078;28;20044;-47
2024/01/24 04:05:21;;;;;;;26.35;5.30;;;9.80;99.90;;;;;;5066925;28;20037;-49
2024/01/24 04:07:47;;;;;;;21.52;4.35;;;9.80;99.90;;;;;;5067174;28;20075;-46
2024/01/24 04:10:13;;;;;;;29.80;5.03;;;9.80;99.90;;;;;;5066854;28;20179;-47
2024/01/24 04:12:38;;;;;;;35.75;5.53;;;9.90;99.90;;;;;;5067004;28;20091;-47
2024/01/24 04:15:06;;;;;;;31.10;7.05;;;9.90;99.90;;;;;;5066910;28;20039;-46
2024/01/24 04:17:32;;;;;;;37.80;5.68;;;9.80;99.90;;;;;;5066443;28;20048;-47
2024/01/24 04:19:57;;;;;;;26.90;4.70;;;9.90;99.90;;;;;;5065769;28;20190;-50
2024/01/24 04:22:23;;;;;;;36.53;5.75;;;9.80;99.90;;;;;;5066601;28;20079;-47
2024/01/24 04:24:49;;;;;;;22.77;4.80;;;9.90;99.90;;;;;;5066773;28;20106;-49
2024/01/24 04:27:14;;;;;;;22.15;4.65;;;9.90;99.90;;;;;;5066677;28;20044;-48
2024/01/24 04:29:42;;;;;;;28.45;4.57;;;9.90;99.90;;;;;;5066539;28;20035;-49
2024/01/24 04:32:09;;;;;;;20.30;4.25;;;9.90;99.90;;;;;;5065554;28;20029;-46
2024/01/24 04:34:35;;;;;;;37.60;4.88;;;9.90;99.90;;;;;;5065422;28;20033;-48
2024/01/24 04:37:01;;;;;;;34.20;7.93;;;9.90;99.90;;;;;;5048627;28;20056;-46
2024/01/24 04:39:26;;;;;;;27.95;5.68;;;9.80;99.90;;;;;;5066384;28;20035;-50
2024/01/24 04:41:53;;;;;;;24.95;4.75;;;9.80;99.90;;;;;;5066349;28;20045;-47
2024/01/24 04:44:19;;;;;;;27.23;4.53;;;9.80;99.90;;;;;;5066171;28;20075;-48
2024/01/24 04:46:44;;;;;;;24.17;4.45;;;9.80;99.90;;;;;;5066362;28;20191;-48
2024/01/24 04:49:11;;;;;;;31.80;5.57;;;9.70;99.90;;;;;;5066349;28;20064;-49
2024/01/24 04:51:37;;;;;;;21.33;4.50;;;9.80;99.90;;;;;;5066179;28;20088;-50
2024/01/24 04:54:03;;;;;;;25.58;4.72;;;9.70;99.90;;;;;;5066251;28;20037;-49
2024/01/24 04:56:29;;;;;;;21.98;3.95;;;9.70;99.90;;;;;;5066241;28;20249;-48
2024/01/24 04:58:55;;;;;;;36.58;5.60;;;9.70;99.90;;;;;;5066157;28;20025;-48
2024/01/24 05:01:20;;;;;;;21.83;4.03;;;9.60;99.90;;;;;;5065167;28;20037;-48
2024/01/24 05:03:46;;;;;;;26.25;4.10;;;9.60;99.90;;;;;;5065759;28;20334;-50
2024/01/24 05:06:12;;;;;;;35.17;4.85;;;9.60;99.90;;;;;;5065993;28;20182;-46
2024/01/24 05:08:38;;;;;;;33.60;5.00;;;9.60;99.90;;;;;;5065067;28;20065;-47
2024/01/24 05:11:04;;;;;;;24.27;4.82;;;9.60;99.90;;;;;;5065999;28;20035;-48
2024/01/24 05:13:30;;;;;;;31.17;4.35;;;9.60;99.90;;;;;;5065624;28;20092;-47
2024/01/24 05:15:56;;;;;;;27.50;5.38;;;9.60;99.90;;;;;;5064519;28;20056;-48
2024/01/24 05:18:21;;;;;;;20.40;4.55;;;9.60;99.90;;;;;;5065872;28;20029;-47
2024/01/24 05:20:47;;;;;;;29.02;4.60;;;9.60;99.90;;;;;;5064817;28;20031;-47
2024/01/24 05:23:13;;;;;;;30.60;4.07;;;9.50;99.90;;;;;;5065129;28;20040;-46
2024/01/24 05:25:40;;;;;;;24.55;4.78;;;9.60;99.90;;;;;;5065604;28;20033;-47
2024/01/24 05:28:05;;;;;;;18.88;4.07;;;9.50;99.90;;;;;;5065633;28;20041;-50
2024/01/24 05:30:31;;;;;;;38.00;4.28;;;9.50;99.90;;;;;;5064646;28;20048;-47
2024/01/24 05:32:57;;;;;;;18.85;3.92;;;9.60;99.90;;;;;;5065659;28;20024;-47
2024/01/24 05:35:23;;;;;;;31.05;4.38;;;9.50;99.90;;;;;;5065786;28;20036;-47
2024/01/24 05:37:49;;;;;;;16.48;3.55;;;9.50;99.90;;;;;;5064512;28;20091;-46
2024/01/24 05:40:15;;;;;;;21.85;4.45;;;9.50;99.90;;;;;;5064435;28;20044;-47
2024/01/24 05:42:40;;;;;;;24.52;4.68;;;9.50;99.90;;;;;;5065558;28;20036;-46
2024/01/24 05:45:06;;;;;;;35.47;4.85;;;9.40;99.90;;;;;;5065664;28;20088;-47
2024/01/24 05:47:32;;;;;;;28.55;4.45;;;9.40;99.90;;;;;;5065422;28;20275;-47
2024/01/24 05:49:58;;;;;;;28.15;4.57;;;9.40;99.90;;;;;;5065391;28;20025;-47
2024/01/24 05:52:24;;;;;;;27.25;5.25;;;9.40;99.90;;;;;;5065270;28;20052;-46
2024/01/24 05:54:50;;;;;;;27.23;5.43;;;9.40;99.90;;;;;;5065470;28;20048;-47
2024/01/24 05:57:15;;;;;;;27.75;4.97;;;9.40;99.90;;;;;;5065171;28;20052;-48
2024/01/24 05:59:41;;;;;;;33.25;5.45;;;9.30;99.90;;;;;;5065127;28;20029;-49
2024/01/24 06:02:07;;;;;;;31.50;5.78;;;9.30;99.90;;;;;;5065149;28;20044;-47
2024/01/24 06:04:32;;;;;;;31.60;5.10;;;9.30;99.90;;;;;;5065371;28;20231;-47
2024/01/24 06:07:00;;;;;;;31.38;5.10;;;9.30;99.90;;;;;;5065244;28;20183;-50
2024/01/24 06:09:27;;;;;;;34.35;5.40;;;9.30;99.90;;;;;;5065245;28;20029;-50
2024/01/24 06:11:53;;;;;;;31.48;4.50;;;9.30;99.90;;;;;;5065071;28;20025;-49
2024/01/24 06:14:19;;;;;;;31.83;4.60;;;9.30;99.90;;;;;;5065251;28;20056;-50
2024/01/24 06:16:44;;;;;;;29.80;5.43;;;9.30;99.90;;;;;;5064793;28;20051;-47
2024/01/24 06:19:10;;;;;;;23.80;4.63;;;9.20;99.90;;;;;;5065199;28;20077;-47
2024/01/24 06:21:36;;;;;;;24.25;5.00;;;9.20;99.90;;;;;;5064712;28;20033;-46
2024/01/24 06:24:01;;;;;;;24.13;4.97;;;9.20;99.90;;;;;;5064777;28;20037;-47
2024/01/24 06:26:27;;;;;;;25.17;4.63;;;9.20;99.90;;;;;;5064896;28;20021;-47
2024/01/24 06:28:53;;;;;;;30.67;4.32;;;9.10;99.90;;;;;;5065048;28;20072;-47
2024/01/24 06:31:18;;;;;;;24.67;4.10;;;9.20;99.90;;;;;;5064586;28;20029;-47
2024/01/24 06:33:44;;;;;;;32.00;4.97;;;9.20;99.90;;;;;;5066152;28;20024;-46
2024/01/24 06:36:09;;;;;;;25.58;4.30;;;9.20;99.90;;;;;;5068596;28;20100;-47
2024/01/24 06:38:35;;;;;;;38.50;5.63;;;9.20;99.90;;;;;;5068679;28;20055;-49
2024/01/24 06:41:01;;;;;;;26.08;4.53;;;9.20;99.90;;;;;;5068575;28;20025;-50
2024/01/24 06:43:26;;;;;;;28.00;5.13;;;9.10;99.90;;;;;;5068688;28;20180;-49
2024/01/24 06:45:52;;;;;;;23.45;3.95;;;9.20;99.90;;;;;;5068348;28;20071;-49
2024/01/24 06:48:18;;;;;;;26.65;5.63;;;9.10;99.90;;;;;;5068386;28;20097;-48
2024/01/24 06:50:44;;;;;;;23.17;4.70;;;9.20;99.90;;;;;;5068424;28;20032;-49
2024/01/24 06:53:14;;;;;;;22.50;4.63;;;9.20;99.90;;;;;;5068209;28;20091;-50
2024/01/24 06:55:40;;;;;;;30.48;5.88;;;9.20;99.90;;;;;;5068490;28;20029;-49
2024/01/24 06:58:05;;;;;;;23.48;5.15;;;9.10;99.90;;;;;;5068111;28;20067;-50
2024/01/24 07:00:32;;;;;;;25.25;4.32;;;9.10;99.90;;;;;;5068047;28;20254;-50
2024/01/24 07:02:59;;;;;;;30.27;4.55;;;9.10;99.90;;;;;;5067749;28;20168;-50
2024/01/24 07:05:25;;;;;;;21.65;3.80;;;9.10;99.90;;;;;;5068063;28;20095;-49
2024/01/24 07:07:50;;;;;;;24.92;3.72;;;9.10;99.90;;;;;;5067965;28;20032;-50
2024/01/24 07:10:16;;;;;;;29.42;4.85;;;9.10;99.90;;;;;;5068051;28;20096;-49
2024/01/24 07:12:45;;;;;;;26.83;4.78;;;9.10;99.90;;;;;;5068137;28;20108;-49
2024/01/24 07:15:11;;;;;;;21.88;4.07;;;9.10;99.90;;;;;;5067665;28;20060;-50
2024/01/24 07:17:37;;;;;;;23.42;4.03;;;9.10;99.90;;;;;;5067615;28;20045;-50
2024/01/24 07:20:03;;;;;;;25.45;3.85;;;9.10;99.90;;;;;;5067816;28;20040;-47
2024/01/24 07:22:29;;;;;;;22.63;3.83;;;9.10;99.90;;;;;;5067901;28;20051;-46
2024/01/24 07:24:54;;;;;;;27.52;4.32;;;9.10;99.90;;;;;;5067752;28;20053;-46
2024/01/24 07:27:20;;;;;;;25.20;4.68;;;9.10;99.90;;;;;;5067437;28;20029;-47
2024/01/24 07:29:45;;;;;;;31.98;4.47;;;9.20;99.90;;;;;;5067638;28;20122;-48
2024/01/24 07:32:11;;;;;;;21.58;4.93;;;9.20;99.90;;;;;;5067271;28;20032;-49
2024/01/24 07:34:38;;;;;;;29.08;4.32;;;9.20;99.90;;;;;;5067670;28;20305;-50
2024/01/24 07:37:04;;;;;;;20.27;4.97;;;9.20;99.90;;;;;;5067605;28;20044;-49
2024/01/24 07:39:30;;;;;;;27.42;4.32;;;9.20;99.90;;;;;;5067506;28;20040;-50
2024/01/24 07:41:56;;;;;;;23.40;4.00;;;9.20;99.90;;;;;;5067375;28;20104;-50
2024/01/24 07:44:22;;;;;;;28.05;4.68;;;9.20;99.90;;;;;;5067182;28;20029;-49
2024/01/24 07:46:48;;;;;;;22.65;4.05;;;9.20;99.90;;;;;;5066659;28;20028;-49
2024/01/24 07:49:13;;;;;;;33.10;4.93;;;9.30;99.90;;;;;;5066316;28;20025;-49
2024/01/24 07:51:41;;;;;;;29.35;4.50;;;9.30;99.90;;;;;;5067126;28;20021;-46
2024/01/24 07:54:07;;;;;;;22.60;3.92;;;9.30;99.90;;;;;;5066935;28;20040;-47
2024/01/24 07:56:32;;;;;;;25.13;4.18;;;9.40;99.90;;;;;;5067234;28;20033;-48
2024/01/24 07:58:58;;;;;;;25.58;4.53;;;9.40;99.90;;;;;;5067122;28;20060;-49
2024/01/24 08:01:24;;;;;;;24.13;4.60;;;9.30;99.90;;;;;;5066704;28;20033;-50
2024/01/24 08:03:50;;;;;;;22.77;4.72;;;9.30;99.90;;;;;;5066680;28;20033;-49
2024/01/24 08:06:16;;;;;;;26.98;4.35;;;9.30;99.90;;;;;;5066756;28;20070;-50
2024/01/24 08:08:41;;;;;;;25.88;4.82;;;9.30;99.90;;;;;;5067002;28;20278;-50
2024/01/24 08:11:07;;;;;;;23.95;4.35;;;9.40;99.90;;;;;;5066885;28;20267;-50
2024/01/24 08:13:33;;;;;;;34.35;5.25;;;9.40;99.90;;;;;;5066705;28;20059;-50
2024/01/24 08:15:59;;;;;;;28.45;4.70;;;9.40;99.90;;;;;;5065738;28;20094;-50
2024/01/24 08:18:24;;;;;;;20.90;3.75;;;9.40;99.90;;;;;;5066755;28;20024;-48
2024/01/24 08:20:52;;;;;;;28.77;4.82;;;9.40;99.90;;;;;;5066696;28;20033;-50
2024/01/24 08:23:18;;;;;;;25.58;4.25;;;9.40;99.90;;;;;;5065283;28;20037;-47
2024/01/24 08:25:44;;;;;;;27.13;4.07;;;9.40;99.90;;;;;;5066615;28;20096;-47
2024/01/24 08:28:10;;;;;;;28.23;3.83;;;9.40;99.90;;;;;;5066597;28;20040;-48
2024/01/24 08:30:35;;;;;;;25.25;4.28;;;9.40;99.90;;;;;;5066313;28;20310;-46
2024/01/24 08:33:01;;;;;;;24.17;4.30;;;9.40;99.90;;;;;;5066356;28;20092;-48
2024/01/24 08:35:27;;;;;;;24.13;4.78;;;9.40;99.90;;;;;;5066531;28;20079;-48
2024/01/24 08:37:53;;;;;;;19.83;4.15;;;9.40;99.90;;;;;;5066346;28;20040;-48
2024/01/24 08:40:21;;;;;;;18.45;4.07;;;9.40;99.90;;;;;;5066140;28;20083;-51
2024/01/24 08:42:46;;;;;;;27.73;6.50;;;9.40;99.90;;;;;;5066082;28;20283;-49
2024/01/24 08:45:12;;;;;;;23.25;4.65;;;9.40;99.90;;;;;;5066009;28;20052;-48
2024/01/24 08:47:38;;;;;;;24.60;5.65;;;9.40;99.90;;;;;;5066371;28;20056;-46
2024/01/24 08:50:04;;;;;;;25.40;4.53;;;9.40;99.90;;;;;;5064855;28;20043;-47
2024/01/24 08:52:35;;;;;;;17.77;3.90;;;9.40;99.90;;;;;;5065945;28;20040;-49
2024/01/24 08:55:00;;;;;;;23.95;4.07;;;9.40;99.90;;;;;;5065519;28;20037;-46
2024/01/24 08:57:26;;;;;;;31.70;5.65;;;9.40;99.90;;;;;;5064840;28;20120;-50
2024/01/24 08:59:52;;;;;;;22.38;3.83;;;9.50;99.90;;;;;;5065483;28;20025;-50
2024/01/24 09:02:18;;;;;;;34.47;5.07;;;9.50;99.90;;;;;;5065649;28;20044;-47
2024/01/24 09:04:46;;;;;;;28.58;5.00;;;9.50;99.90;;;;;;5064679;28;20037;-50
2024/01/24 09:07:14;;;;;;;32.75;5.45;;;9.50;99.90;;;;;;5065606;28;20243;-48
2024/01/24 09:09:40;;;;;;;25.75;4.78;;;9.50;99.90;;;;;;5065251;28;20025;-48
2024/01/24 09:12:06;;;;;;;25.55;4.25;;;9.50;99.90;;;;;;5065831;28;20064;-47
2024/01/24 09:14:31;;;;;;;28.60;4.30;;;9.60;99.90;;;;;;5065719;28;20156;-47
2024/01/24 09:16:57;;;;;;;28.63;5.43;;;9.60;99.90;;;;;;5065139;28;20049;-49
2024/01/24 09:19:23;;;;;;;24.33;6.00;;;9.60;99.90;;;;;;5065309;28;20041;-48
2024/01/24 09:21:49;;;;;;;27.33;4.55;;;9.60;99.90;;;;;;5065431;28;20024;-49
2024/01/24 09:24:15;;;;;;;30.65;4.63;;;9.60;99.90;;;;;;5065354;28;20278;-47
2024/01/24 09:26:40;;;;;;;38.20;6.05;;;9.60;99.90;;;;;;5064131;28;20108;-47
2024/01/24 09:29:06;;;;;;;24.63;5.20;;;9.60;99.90;;;;;;5065180;28;20035;-46
2024/01/24 09:31:32;;;;;;;28.83;4.53;;;9.60;99.90;;;;;;5064493;28;20047;-47
2024/01/24 09:33:57;;;;;;;30.52;4.22;;;9.70;99.90;;;;;;5065000;28;20060;-47
2024/01/24 09:36:23;;;;;;;29.00;4.75;;;9.70;99.90;;;;;;5065264;28;20286;-48
2024/01/24 09:38:49;;;;;;;32.30;5.30;;;9.60;99.90;;;;;;5065304;28;20040;-50
2024/01/24 09:41:19;;;;;;;23.90;4.68;;;9.60;99.90;;;;;;5063982;28;20041;-47
2024/01/24 09:43:45;;;;;;;33.28;5.47;;;9.60;99.90;;;;;;5064907;28;20297;-47
2024/01/24 09:46:13;;;;;;;31.80;5.43;;;9.60;99.90;;;;;;5065076;28;20021;-49
2024/01/24 09:48:40;;;;;;;27.15;7.32;;;9.70;99.90;;;;;;5064021;28;20028;-49
2024/01/24 09:51:06;;;;;;;28.55;4.97;;;9.60;99.90;;;;;;5063891;28;20036;-49
2024/01/24 09:53:32;;;;;;;24.52;5.30;;;9.70;99.90;;;;;;5064502;28;20020;-47
2024/01/24 09:55:57;;;;;;;33.00;5.57;;;9.60;99.90;;;;;;5047504;28;20040;-49
2024/01/24 09:58:23;;;;;;;27.98;5.45;;;9.70;99.90;;;;;;5064283;28;20029;-49
2024/01/24 10:00:51;;;;;;;26.00;5.20;;;9.70;99.90;;;;;;5064122;28;20029;-50
2024/01/24 10:03:17;;;;;;;28.15;5.43;;;9.70;99.90;;;;;;5064611;28;20072;-49
2024/01/24 10:05:42;;;;;;;41.05;5.95;;;9.70;99.90;;;;;;5047019;28;20032;-48
2024/01/24 10:08:10;;;;;;;25.02;5.18;;;9.80;99.90;;;;;;5065201;28;20303;-47
2024/01/24 10:10:36;;;;;;;28.48;5.65;;;9.80;99.90;;;;;;5067679;28;20100;-49
2024/01/24 10:13:03;;;;;;;31.23;5.63;;;9.80;99.90;;;;;;5068539;28;20295;-49
2024/01/24 10:15:28;;;;;;;30.38;5.00;;;9.80;99.90;;;;;;5067598;28;20043;-47
2024/01/24 10:17:56;;;;;;;29.85;5.40;;;9.80;99.90;;;;;;5067652;28;20061;-49
2024/01/24 10:20:21;;;;;;;35.75;6.05;;;9.80;99.90;;;;;;5068687;28;20027;-48
2024/01/24 10:22:47;;;;;;;25.95;3.97;;;9.80;99.90;;;;;;5067843;28;20040;-49
2024/01/24 10:25:13;;;;;;;29.23;5.43;;;9.80;99.90;;;;;;5068691;28;20040;-48
2024/01/24 10:27:39;;;;;;;33.70;5.05;;;9.80;99.90;;;;;;5068590;28;20032;-48
2024/01/24 10:30:12;;;;;;;26.63;4.40;;;9.80;99.90;;;;;;5067639;28;20191;-49
2024/01/24 10:32:38;;;;;;;32.95;5.65;;;9.80;99.90;;;;;;5067529;28;20035;-48
2024/01/24 10:35:04;;;;;;;30.05;5.75;;;9.80;99.90;;;;;;5068560;28;20048;-49
2024/01/24 10:37:31;;;;;;;29.38;5.22;;;9.80;99.90;;;;;;5068355;28;20079;-49
2024/01/24 10:39:57;;;;;;;33.58;6.30;;;9.80;99.90;;;;;;5067416;28;20230;-50
2024/01/24 10:42:22;;;;;;;35.22;6.38;;;9.80;99.90;;;;;;5050748;28;20037;-46
2024/01/24 10:44:50;;;;;;;55.13;15.02;;;9.80;99.90;;;;;;5050543;28;20048;-48
2024/01/24 10:47:15;;;;;;;97.95;38.88;;;9.80;99.90;;;;;;5067667;28;20035;-50
2024/01/24 10:49:41;;;;;;;237.40;100.75;;;9.90;99.90;;;;;;5033939;28;20020;-48
2024/01/24 10:52:07;;;;;;;261.50;110.80;;;9.90;99.90;;;;;;5067043;28;20096;-47
2024/01/24 10:54:33;;;;;;;291.35;125.53;;;9.90;99.90;;;;;;5050550;28;20059;-47
2024/01/24 10:56:59;;;;;;;49.10;16.63;;;9.90;99.90;;;;;;5066588;28;20033;-47
2024/01/24 10:59:25;;;;;;;32.15;14.70;;;9.90;99.90;;;;;;5066043;28;20053;-48
2024/01/24 11:01:51;;;;;;;34.10;7.78;;;9.80;99.90;;;;;;5067479;28;20029;-50
2024/01/24 11:04:21;;;;;;;35.80;8.95;;;9.90;99.90;;;;;;5067703;28;20045;-49
2024/01/24 11:06:57;;;;;;;26.63;9.15;;;9.90;99.90;;;;;;5066909;28;20029;-48
2024/01/24 11:09:41;;;;;;;32.25;10.32;;;9.90;99.90;;;;;;5067646;28;20350;-47
2024/01/24 11:12:07;;;;;;;19.77;4.75;;;9.90;99.90;;;;;;5067845;28;20293;-47
2024/01/24 11:14:33;;;;;;;26.65;6.00;;;9.90;99.90;;;;;;5050021;28;20100;-48
2024/01/24 11:17:00;;;;;;;32.10;6.50;;;10.00;99.90;;;;;;5066068;28;20102;-48
2024/01/24 11:19:28;;;;;;;24.90;4.78;;;10.00;99.90;;;;;;5066049;28;20064;-47
2024/01/24 11:21:56;;;;;;;27.17;4.82;;;10.00;99.90;;;;;;5065921;28;20040;-47
2024/01/24 11:24:41;;;;;;;33.63;5.72;;;10.00;99.90;;;;;;5067586;28;20040;-50
2024/01/24 11:27:35;;;;;;;28.65;8.32;;;10.00;99.90;;;;;;5067291;28;20110;-49
2024/01/24 11:30:16;;;;;;;42.63;20.90;;;10.00;99.90;;;;;;5067451;28;20013;-50
2024/01/24 11:32:44;;;;;;;34.20;6.85;;;10.10;99.90;;;;;;5066358;28;20071;-50
2024/01/24 11:35:36;;;;;;;41.75;8.75;;;10.10;99.90;;;;;;5067253;28;20056;-50
2024/01/24 11:38:01;;;;;;;20.65;4.88;;;10.20;99.90;;;;;;5066946;28;20173;-50
2024/01/24 11:40:27;;;;;;;61.95;21.23;;;10.30;99.90;;;;;;5066844;28;20111;-50
2024/01/24 11:42:54;;;;;;;72.55;24.88;;;10.40;99.90;;;;;;5066896;28;20028;-50
2024/01/24 11:45:20;;;;;;;41.45;13.70;;;10.40;99.90;;;;;;5066740;28;20259;-50
2024/01/24 11:47:48;;;;;;;30.98;8.10;;;10.40;99.90;;;;;;5066416;28;20065;-50
2024/01/24 11:50:14;;;;;;;25.45;5.57;;;10.40;99.90;;;;;;5065874;28;20024;-48
2024/01/24 11:52:40;;;;;;;36.55;8.10;;;10.30;99.90;;;;;;5066799;28;20037;-48
2024/01/24 11:55:06;;;;;;;31.83;6.78;;;10.30;99.90;;;;;;5065900;28;20032;-48
2024/01/24 11:57:32;;;;;;;35.03;8.63;;;10.40;99.90;;;;;;5065758;28;20039;-50
2024/01/24 11:59:57;;;;;;;37.50;6.32;;;10.40;99.90;;;;;;5066677;28;20032;-51
2024/01/24 12:02:23;;;;;;;41.88;5.88;;;10.40;99.90;;;;;;5066890;28;20025;-51
2024/01/24 12:04:52;;;;;;;28.67;4.93;;;10.40;99.90;;;;;;5066621;28;20029;-49
2024/01/24 12:07:18;;;;;;;37.57;7.87;;;10.40;99.90;;;;;;5066251;28;20033;-48
2024/01/24 12:09:44;;;;;;;31.88;5.13;;;10.40;99.90;;;;;;5065602;28;20021;-48
2024/01/24 12:12:10;;;;;;;28.20;6.57;;;10.30;99.90;;;;;;5066443;28;20092;-50
2024/01/24 12:14:36;;;;;;;25.98;5.00;;;10.30;99.90;;;;;;5048463;28;20052;-48
2024/01/24 12:17:02;;;;;;;36.00;6.03;;;10.30;99.90;;;;;;5065369;28;20110;-51
2024/01/24 12:19:29;;;;;;;29.33;5.60;;;10.20;99.90;;;;;;5066236;28;20033;-49
2024/01/24 12:21:55;;;;;;;33.05;6.18;;;10.20;99.90;;;;;;5066210;28;20104;-50
2024/01/24 12:24:21;;;;;;;33.83;5.35;;;10.10;99.90;;;;;;5065325;28;20028;-50
2024/01/24 12:26:47;;;;;;;31.35;5.35;;;10.20;99.90;;;;;;5066294;28;20078;-50
2024/01/24 12:29:12;;;;;;;31.63;5.05;;;10.10;99.90;;;;;;5065110;28;20045;-50
2024/01/24 12:31:40;;;;;;;34.25;5.85;;;10.10;99.90;;;;;;5064396;28;20021;-51
2024/01/24 12:34:08;;;;;;;28.40;5.28;;;10.10;99.90;;;;;;5065830;28;20025;-50
2024/01/24 12:36:34;;;;;;;27.85;5.78;;;10.10;99.90;;;;;;5065941;28;20059;-51
2024/01/24 12:39:00;;;;;;;48.80;18.67;;;10.10;99.90;;;;;;5066043;28;20283;-51